オウル の空港の天気 - METARとTAF

オウル空港 ( EFOU / OUL ) - フィンランド Oulunsalo
飛行場実況気象(Metar)
観測時間03/22 22:50 EET (03/22 20:50 UTC)
風向・風速南南東 4m/s
視程10km以上
天気現象
全天の4割程度の雲 雲底高度 2870m
気温0℃
湿度64%
気圧1016hPa
METAREFOU 222050Z AUTO 16008KT 9999 SCT094/// M00/M06 Q1016
過去の天気等 Google飛行場航空写真 Wunderground天気予報

過去48時間のMETAR

飛行場予報(TAF)
発表時間: 3/22 22:28 EET (3/22 20:28 UTC)
予報対象時間: 22日23時 EET ~ 23日23時 EET
風向・風速南 5m/s
視程10km以上
なし
23日2時 EET ~ 23日4時 EET に徐々に
視程7000m
天気現象弱い雪雨
23日4時 EET ~ 23日8時 EET に一時的に
風向・風速南 8m/s 瞬間風速 15m/s
視程2000m
天気現象雪雨
全天を覆う雲 鉛直視程 430m
23日8時 EET ~ 23日14時 EET に一時的に
風向・風速南西 6m/s 瞬間風速 13m/s
視程4000m
天気現象雨雪
23日14時 EET ~ 23日16時 EET に徐々に
風向・風速西南西 8m/s
視程10km以上
全天の4割程度の雲 雲底高度 610m
23日16時 EET ~ 23日23時 EET に一時的に
風向・風速南西 8m/s 瞬間風速 14m/s
TAF EFOU 222028Z 2221/2321 19010KT CAVOK
BECMG 2300/2302 7000 -SNRA
TEMPO 2302/2306 19015G29KT 2000 SNRA VV014
TEMPO 2306/2312 22012G26KT 4000 RASN
BECMG 2312/2314 24015KT 9999 SCT020
TEMPO 2314/2321 22015G28KT